createdAt,value
2019-03-17T00:00:58.187Z,99.99
2019-03-17T00:11:51.384Z,99.99
2019-03-17T00:22:49.272Z,99.99
2019-03-17T00:33:44.305Z,99.99
2019-03-17T00:44:43.220Z,99.99
2019-03-17T00:55:39.335Z,99.99
2019-03-17T01:06:38.406Z,99.99
2019-03-17T01:17:37.055Z,99.99
2019-03-17T01:28:32.798Z,99.99
2019-03-17T01:39:34.213Z,99.99
2019-03-17T01:50:28.694Z,99.99
2019-03-17T02:01:26.413Z,99.99
2019-03-17T02:12:20.616Z,99.99
2019-03-17T02:23:04.756Z,99.99
2019-03-17T02:33:41.464Z,99.99
2019-03-17T02:44:35.764Z,99.99
2019-03-17T02:55:28.122Z,99.99
2019-03-17T03:06:27.056Z,99.99
2019-03-17T03:17:20.363Z,99.99
2019-03-17T03:28:19.317Z,99.99
2019-03-17T03:39:22.489Z,99.99
2019-03-17T03:50:17.906Z,99.99
2019-03-17T04:01:15.019Z,99.99
2019-03-17T04:12:14.174Z,99.99
2019-03-17T04:23:10.415Z,99.99
2019-03-17T04:34:10.044Z,99.99
2019-03-17T04:45:07.364Z,99.99
2019-03-17T04:56:09.886Z,99.99
2019-03-17T05:07:13.198Z,99.99
2019-03-17T05:18:13.853Z,99.99
2019-03-17T05:29:18.577Z,99.99
2019-03-17T05:40:18.144Z,99.99
2019-03-17T05:51:18.229Z,99.99
2019-03-17T06:02:23.154Z,99.99
2019-03-17T06:13:21.469Z,99.99
2019-03-17T06:24:24.153Z,99.99
2019-03-17T06:35:24.107Z,99.99
2019-03-17T06:46:22.760Z,99.99
2019-03-17T06:57:26.514Z,99.99
2019-03-17T07:08:27.240Z,99.99
2019-03-17T07:19:23.368Z,99.99
2019-03-17T07:30:28.666Z,99.99
2019-03-17T07:41:34.275Z,99.99
2019-03-17T07:52:31.434Z,99.99
2019-03-17T08:03:34.864Z,99.99
2019-03-17T08:14:26.031Z,99.99
2019-03-17T08:25:23.109Z,99.99
2019-03-17T08:36:25.847Z,99.99
2019-03-17T08:47:24.091Z,99.99
2019-03-17T08:58:22.803Z,99.99
2019-03-17T09:09:28.228Z,99.99
2019-03-17T09:20:30.873Z,99.99
2019-03-17T09:31:35.088Z,99.99
2019-03-17T09:42:34.229Z,99.99
2019-03-17T09:53:34.029Z,96.51
2019-03-17T10:04:39.426Z,94.05
2019-03-17T10:15:41.841Z,91.69
2019-03-17T10:26:45.182Z,89.59
2019-03-17T10:37:45.269Z,89.76
2019-03-17T10:48:49.330Z,88.37
2019-03-17T10:59:53.045Z,86.82
2019-03-17T11:10:58.107Z,83.03
2019-03-17T11:21:56.396Z,79.49
2019-03-17T11:32:58.947Z,78.56
2019-03-17T11:44:01.678Z,78.97
2019-03-17T11:55:02.054Z,76.90
2019-03-17T12:06:02.290Z,72.61
2019-03-17T12:17:00.542Z,72.38
2019-03-17T12:28:00.674Z,71.69
2019-03-17T12:39:04.279Z,72.05
2019-03-17T12:50:06.535Z,70.68
2019-03-17T13:01:07.214Z,69.82
2019-03-17T13:12:06.272Z,69.92
2019-03-17T13:23:09.759Z,67.21
2019-03-17T13:33:42.437Z,68.43
2019-03-17T13:44:29.691Z,62.37
2019-03-17T13:55:31.637Z,68.63
2019-03-17T14:06:34.001Z,67.94
2019-03-17T14:17:34.083Z,70.48
2019-03-17T14:28:29.725Z,72.11
2019-03-17T14:39:29.989Z,74.27
2019-03-17T14:50:29.092Z,74.04
2019-03-17T15:01:25.819Z,74.71
2019-03-17T15:12:25.874Z,75.71
2019-03-17T15:23:21.898Z,75.55
2019-03-17T15:34:26.001Z,75.07
2019-03-17T15:45:20.292Z,76.15
2019-03-17T15:56:21.517Z,77.18
2019-03-17T16:07:25.312Z,77.83
2019-03-17T16:18:23.018Z,76.95
2019-03-17T16:29:27.363Z,76.82
2019-03-17T16:40:23.876Z,79.08
2019-03-17T16:51:23.107Z,80.80
2019-03-17T17:02:20.370Z,79.06
2019-03-17T17:13:17.121Z,80.91
2019-03-17T17:24:13.384Z,81.49
2019-03-17T17:35:16.443Z,82.44
2019-03-17T17:46:14.504Z,82.84
2019-03-17T17:57:12.032Z,83.69
2019-03-17T18:08:15.677Z,83.93
2019-03-17T18:19:12.778Z,85.17
2019-03-17T18:30:13.174Z,83.76
2019-03-17T18:41:17.087Z,84.85
2019-03-17T18:52:17.089Z,85.90
2019-03-17T19:03:19.106Z,85.16
2019-03-17T19:14:16.364Z,85.10
2019-03-17T19:25:17.783Z,86.39
2019-03-17T19:36:17.180Z,84.15
2019-03-17T19:47:17.937Z,85.44
2019-03-17T19:58:22.241Z,86.15
2019-03-17T20:09:18.260Z,86.19
2019-03-17T20:20:15.506Z,94.73
2019-03-17T20:31:17.228Z,99.99
2019-03-17T20:42:14.413Z,99.99
2019-03-17T20:53:10.882Z,99.99
2019-03-17T21:04:10.369Z,99.99
2019-03-17T21:15:06.696Z,99.99
2019-03-17T21:26:03.746Z,99.99
2019-03-17T21:37:01.966Z,99.99
2019-03-17T21:47:56.485Z,99.99
2019-03-17T21:59:00.349Z,99.99
2019-03-17T22:10:00.384Z,99.99
2019-03-17T22:21:02.691Z,99.99
2019-03-17T22:32:03.313Z,99.99
2019-03-17T22:43:05.491Z,99.99
2019-03-17T22:54:01.755Z,99.99
2019-03-17T23:05:01.364Z,99.99
2019-03-17T23:16:03.004Z,99.99
2019-03-17T23:27:02.383Z,99.99
2019-03-17T23:38:00.208Z,99.99
2019-03-17T23:49:02.156Z,99.99
